sensor_id;sensor_type;location;lat;lon;timestamp;temperature;humidity
7234;DHT22;3658;47.992;10.158;2023-05-01T00:01:48;20.90;44.80
7234;DHT22;3658;47.992;10.158;2023-05-01T00:04:15;20.90;44.70
7234;DHT22;3658;47.992;10.158;2023-05-01T00:06:42;20.80;44.60
7234;DHT22;3658;47.992;10.158;2023-05-01T00:09:09;20.90;44.80
7234;DHT22;3658;47.992;10.158;2023-05-01T00:11:36;20.90;44.70
7234;DHT22;3658;47.992;10.158;2023-05-01T00:14:03;20.90;44.70
7234;DHT22;3658;47.992;10.158;2023-05-01T00:16:30;20.90;44.70
7234;DHT22;3658;47.992;10.158;2023-05-01T00:18:58;20.90;44.70
7234;DHT22;3658;47.992;10.158;2023-05-01T00:21:25;20.80;44.60
7234;DHT22;3658;47.992;10.158;2023-05-01T00:23:53;20.80;44.60
7234;DHT22;3658;47.992;10.158;2023-05-01T00:26:20;20.90;44.60
7234;DHT22;3658;47.992;10.158;2023-05-01T00:28:47;20.90;44.60
7234;DHT22;3658;47.992;10.158;2023-05-01T00:31:15;20.90;44.50
7234;DHT22;3658;47.992;10.158;2023-05-01T00:33:42;20.90;44.50
7234;DHT22;3658;47.992;10.158;2023-05-01T00:36:11;20.90;44.50
7234;DHT22;3658;47.992;10.158;2023-05-01T00:38:38;20.90;44.50
7234;DHT22;3658;47.992;10.158;2023-05-01T00:41:05;20.90;44.40
7234;DHT22;3658;47.992;10.158;2023-05-01T00:43:31;20.90;44.40
7234;DHT22;3658;47.992;10.158;2023-05-01T00:45:59;20.90;44.50
7234;DHT22;3658;47.992;10.158;2023-05-01T00:48:25;20.90;44.50
7234;DHT22;3658;47.992;10.158;2023-05-01T00:50:53;20.90;44.40
7234;DHT22;3658;47.992;10.158;2023-05-01T00:53:23;20.90;44.40
7234;DHT22;3658;47.992;10.158;2023-05-01T00:55:51;20.90;44.40
7234;DHT22;3658;47.992;10.158;2023-05-01T00:58:19;20.90;44.50
7234;DHT22;3658;47.992;10.158;2023-05-01T01:00:46;20.90;44.40
7234;DHT22;3658;47.992;10.158;2023-05-01T01:03:13;20.90;44.40
7234;DHT22;3658;47.992;10.158;2023-05-01T01:05:45;20.90;44.40
7234;DHT22;3658;47.992;10.158;2023-05-01T01:08:18;20.90;44.30
7234;DHT22;3658;47.992;10.158;2023-05-01T01:10:53;20.90;44.30
7234;DHT22;3658;47.992;10.158;2023-05-01T01:13:27;20.90;44.30
7234;DHT22;3658;47.992;10.158;2023-05-01T01:16:04;20.90;44.30
7234;DHT22;3658;47.992;10.158;2023-05-01T01:18:39;20.90;44.20
7234;DHT22;3658;47.992;10.158;2023-05-01T01:21:10;20.90;44.20
7234;DHT22;3658;47.992;10.158;2023-05-01T01:24:08;20.80;44.20
7234;DHT22;3658;47.992;10.158;2023-05-01T01:26:50;20.90;44.20
7234;DHT22;3658;47.992;10.158;2023-05-01T01:32:25;20.90;44.20
7234;DHT22;3658;47.992;10.158;2023-05-01T01:35:01;20.90;44.20
7234;DHT22;3658;47.992;10.158;2023-05-01T01:37:36;20.90;44.20
7234;DHT22;3658;47.992;10.158;2023-05-01T01:40:10;20.90;44.20
7234;DHT22;3658;47.992;10.158;2023-05-01T01:42:42;20.90;44.20
7234;DHT22;3658;47.992;10.158;2023-05-01T01:45:14;20.90;44.20
7234;DHT22;3658;47.992;10.158;2023-05-01T01:47:42;20.90;44.20
7234;DHT22;3658;47.992;10.158;2023-05-01T01:50:11;20.90;44.10
7234;DHT22;3658;47.992;10.158;2023-05-01T01:52:41;20.90;44.20
7234;DHT22;3658;47.992;10.158;2023-05-01T01:55:11;20.90;44.20
7234;DHT22;3658;47.992;10.158;2023-05-01T01:57:39;20.90;44.20
7234;DHT22;3658;47.992;10.158;2023-05-01T02:00:09;20.90;44.10
7234;DHT22;3658;47.992;10.158;2023-05-01T02:02:37;20.80;44.00
7234;DHT22;3658;47.992;10.158;2023-05-01T02:05:06;20.90;44.10
7234;DHT22;3658;47.992;10.158;2023-05-01T02:07:37;20.90;44.00
7234;DHT22;3658;47.992;10.158;2023-05-01T02:10:06;20.90;44.00
7234;DHT22;3658;47.992;10.158;2023-05-01T02:12:35;20.90;44.00
7234;DHT22;3658;47.992;10.158;2023-05-01T02:15:05;20.90;44.00
7234;DHT22;3658;47.992;10.158;2023-05-01T02:17:34;20.90;44.00
7234;DHT22;3658;47.992;10.158;2023-05-01T02:20:02;20.90;44.00
7234;DHT22;3658;47.992;10.158;2023-05-01T02:22:30;20.90;44.00
7234;DHT22;3658;47.992;10.158;2023-05-01T02:24:59;20.90;44.00
7234;DHT22;3658;47.992;10.158;2023-05-01T02:27:30;20.90;44.00
7234;DHT22;3658;47.992;10.158;2023-05-01T02:29:58;20.90;44.00
7234;DHT22;3658;47.992;10.158;2023-05-01T02:32:25;20.90;44.00
7234;DHT22;3658;47.992;10.158;2023-05-01T02:34:53;20.90;44.00
7234;DHT22;3658;47.992;10.158;2023-05-01T02:37:20;20.90;44.00
7234;DHT22;3658;47.992;10.158;2023-05-01T02:39:47;20.90;44.00
7234;DHT22;3658;47.992;10.158;2023-05-01T02:42:16;20.90;43.90
7234;DHT22;3658;47.992;10.158;2023-05-01T02:44:51;20.90;43.90
7234;DHT22;3658;47.992;10.158;2023-05-01T02:47:21;20.90;43.90
7234;DHT22;3658;47.992;10.158;2023-05-01T02:49:50;20.90;43.90
7234;DHT22;3658;47.992;10.158;2023-05-01T02:52:18;20.90;43.90
7234;DHT22;3658;47.992;10.158;2023-05-01T02:54:45;20.90;43.80
7234;DHT22;3658;47.992;10.158;2023-05-01T02:57:12;20.90;43.80
7234;DHT22;3658;47.992;10.158;2023-05-01T02:59:41;20.90;43.90
7234;DHT22;3658;47.992;10.158;2023-05-01T03:02:08;20.90;43.80
7234;DHT22;3658;47.992;10.158;2023-05-01T03:04:35;20.90;43.80
7234;DHT22;3658;47.992;10.158;2023-05-01T03:07:02;20.90;43.80
7234;DHT22;3658;47.992;10.158;2023-05-01T03:09:29;20.90;43.80
7234;DHT22;3658;47.992;10.158;2023-05-01T03:11:57;20.90;43.80
7234;DHT22;3658;47.992;10.158;2023-05-01T03:14:24;20.90;43.80
7234;DHT22;3658;47.992;10.158;2023-05-01T03:16:54;20.90;43.70
7234;DHT22;3658;47.992;10.158;2023-05-01T03:19:21;20.90;43.80
7234;DHT22;3658;47.992;10.158;2023-05-01T03:21:48;20.90;43.80
7234;DHT22;3658;47.992;10.158;2023-05-01T03:24:15;20.90;43.80
7234;DHT22;3658;47.992;10.158;2023-05-01T03:26:42;20.90;43.80
7234;DHT22;3658;47.992;10.158;2023-05-01T03:29:09;20.90;43.80
7234;DHT22;3658;47.992;10.158;2023-05-01T03:31:37;20.90;43.80
7234;DHT22;3658;47.992;10.158;2023-05-01T03:34:06;20.90;43.70
7234;DHT22;3658;47.992;10.158;2023-05-01T03:36:33;20.90;43.80
7234;DHT22;3658;47.992;10.158;2023-05-01T03:39:00;20.90;43.70
7234;DHT22;3658;47.992;10.158;2023-05-01T03:41:27;20.90;43.70
7234;DHT22;3658;47.992;10.158;2023-05-01T03:43:53;20.90;43.70
7234;DHT22;3658;47.992;10.158;2023-05-01T03:46:20;20.90;43.70
7234;DHT22;3658;47.992;10.158;2023-05-01T03:48:48;20.90;43.70
7234;DHT22;3658;47.992;10.158;2023-05-01T03:51:16;20.90;43.70
7234;DHT22;3658;47.992;10.158;2023-05-01T03:53:43;20.90;43.70
7234;DHT22;3658;47.992;10.158;2023-05-01T03:56:10;20.90;43.70
7234;DHT22;3658;47.992;10.158;2023-05-01T03:58:37;20.90;43.70
7234;DHT22;3658;47.992;10.158;2023-05-01T04:01:04;20.90;43.70
7234;DHT22;3658;47.992;10.158;2023-05-01T04:03:31;20.90;43.70
7234;DHT22;3658;47.992;10.158;2023-05-01T04:05:58;20.90;43.70
7234;DHT22;3658;47.992;10.158;2023-05-01T04:08:26;20.90;43.70
7234;DHT22;3658;47.992;10.158;2023-05-01T04:10:53;20.90;43.70
7234;DHT22;3658;47.992;10.158;2023-05-01T04:13:20;20.90;43.70
7234;DHT22;3658;47.992;10.158;2023-05-01T04:15:47;20.90;43.70
7234;DHT22;3658;47.992;10.158;2023-05-01T04:18:14;20.90;43.70
7234;DHT22;3658;47.992;10.158;2023-05-01T04:20:41;20.90;43.60
7234;DHT22;3658;47.992;10.158;2023-05-01T04:23:08;20.90;43.60
7234;DHT22;3658;47.992;10.158;2023-05-01T04:25:36;20.90;43.70
7234;DHT22;3658;47.992;10.158;2023-05-01T04:28:03;20.90;43.70
7234;DHT22;3658;47.992;10.158;2023-05-01T04:30:30;20.90;43.70
7234;DHT22;3658;47.992;10.158;2023-05-01T04:32:57;20.90;43.60
7234;DHT22;3658;47.992;10.158;2023-05-01T04:35:24;20.90;43.70
7234;DHT22;3658;47.992;10.158;2023-05-01T04:37:51;20.90;43.60
7234;DHT22;3658;47.992;10.158;2023-05-01T04:40:18;20.90;43.60
7234;DHT22;3658;47.992;10.158;2023-05-01T04:42:47;20.90;43.70
7234;DHT22;3658;47.992;10.158;2023-05-01T04:45:14;20.90;43.70
7234;DHT22;3658;47.992;10.158;2023-05-01T04:47:41;20.90;43.70
7234;DHT22;3658;47.992;10.158;2023-05-01T04:50:09;20.90;43.70
7234;DHT22;3658;47.992;10.158;2023-05-01T04:52:36;20.90;43.60
7234;DHT22;3658;47.992;10.158;2023-05-01T04:55:03;20.90;43.60
7234;DHT22;3658;47.992;10.158;2023-05-01T04:57:30;20.90;43.60
7234;DHT22;3658;47.992;10.158;2023-05-01T04:59:59;20.90;43.60
7234;DHT22;3658;47.992;10.158;2023-05-01T05:02:26;20.90;43.50
7234;DHT22;3658;47.992;10.158;2023-05-01T05:04:53;20.90;43.60
7234;DHT22;3658;47.992;10.158;2023-05-01T05:07:20;20.90;43.50
7234;DHT22;3658;47.992;10.158;2023-05-01T05:09:47;20.90;43.60
7234;DHT22;3658;47.992;10.158;2023-05-01T05:12:15;20.90;43.60
7234;DHT22;3658;47.992;10.158;2023-05-01T05:14:42;20.90;43.60
7234;DHT22;3658;47.992;10.158;2023-05-01T05:17:10;20.90;43.60
7234;DHT22;3658;47.992;10.158;2023-05-01T05:19:37;20.90;43.60
7234;DHT22;3658;47.992;10.158;2023-05-01T05:22:04;20.90;43.60
7234;DHT22;3658;47.992;10.158;2023-05-01T05:24:31;20.90;43.60
7234;DHT22;3658;47.992;10.158;2023-05-01T05:26:58;20.90;43.60
7234;DHT22;3658;47.992;10.158;2023-05-01T05:29:25;20.90;43.50
7234;DHT22;3658;47.992;10.158;2023-05-01T05:31:52;20.90;43.60
7234;DHT22;3658;47.992;10.158;2023-05-01T05:34:20;20.90;43.60
7234;DHT22;3658;47.992;10.158;2023-05-01T05:36:47;20.90;43.60
7234;DHT22;3658;47.992;10.158;2023-05-01T05:39:14;20.90;43.60
7234;DHT22;3658;47.992;10.158;2023-05-01T05:41:41;20.90;44.20
7234;DHT22;3658;47.992;10.158;2023-05-01T05:44:08;20.90;43.50
7234;DHT22;3658;47.992;10.158;2023-05-01T05:46:35;20.90;43.50
7234;DHT22;3658;47.992;10.158;2023-05-01T05:49:02;20.90;43.50
7234;DHT22;3658;47.992;10.158;2023-05-01T05:51:31;20.90;43.50
7234;DHT22;3658;47.992;10.158;2023-05-01T05:53:57;21.00;43.50
7234;DHT22;3658;47.992;10.158;2023-05-01T05:56:24;21.00;43.60
7234;DHT22;3658;47.992;10.158;2023-05-01T05:58:51;21.00;43.60
7234;DHT22;3658;47.992;10.158;2023-05-01T06:01:18;21.00;43.50
7234;DHT22;3658;47.992;10.158;2023-05-01T06:03:45;21.00;43.50
7234;DHT22;3658;47.992;10.158;2023-05-01T06:06:12;21.00;43.50
7234;DHT22;3658;47.992;10.158;2023-05-01T06:08:41;20.90;43.50
7234;DHT22;3658;47.992;10.158;2023-05-01T06:11:10;20.90;43.50
7234;DHT22;3658;47.992;10.158;2023-05-01T06:13:37;20.90;43.50
7234;DHT22;3658;47.992;10.158;2023-05-01T06:16:04;21.00;43.60
7234;DHT22;3658;47.992;10.158;2023-05-01T06:18:32;20.90;43.50
7234;DHT22;3658;47.992;10.158;2023-05-01T06:20:59;20.90;43.50
7234;DHT22;3658;47.992;10.158;2023-05-01T06:23:26;20.90;43.50
7234;DHT22;3658;47.992;10.158;2023-05-01T06:25:55;21.00;43.60
7234;DHT22;3658;47.992;10.158;2023-05-01T06:28:22;21.00;43.50
7234;DHT22;3658;47.992;10.158;2023-05-01T06:30:49;21.00;43.50
7234;DHT22;3658;47.992;10.158;2023-05-01T06:33:16;21.00;43.50
7234;DHT22;3658;47.992;10.158;2023-05-01T06:35:43;21.00;43.60
7234;DHT22;3658;47.992;10.158;2023-05-01T06:38:10;21.00;43.50
7234;DHT22;3658;47.992;10.158;2023-05-01T06:40:37;21.00;44.40
7234;DHT22;3658;47.992;10.158;2023-05-01T06:43:05;21.00;45.50
7234;DHT22;3658;47.992;10.158;2023-05-01T06:45:32;21.00;45.90
7234;DHT22;3658;47.992;10.158;2023-05-01T06:47:59;21.00;46.10
7234;DHT22;3658;47.992;10.158;2023-05-01T06:50:26;21.00;46.20
7234;DHT22;3658;47.992;10.158;2023-05-01T06:52:53;21.00;46.30
7234;DHT22;3658;47.992;10.158;2023-05-01T06:55:20;21.00;46.30
7234;DHT22;3658;47.992;10.158;2023-05-01T06:57:47;21.00;46.30
7234;DHT22;3658;47.992;10.158;2023-05-01T07:00:17;21.00;46.40
7234;DHT22;3658;47.992;10.158;2023-05-01T07:02:44;21.00;46.50
7234;DHT22;3658;47.992;10.158;2023-05-01T07:05:11;21.00;46.50
7234;DHT22;3658;47.992;10.158;2023-05-01T07:07:38;21.00;46.50
7234;DHT22;3658;47.992;10.158;2023-05-01T07:10:06;21.00;46.50
7234;DHT22;3658;47.992;10.158;2023-05-01T07:12:33;21.00;46.60
7234;DHT22;3658;47.992;10.158;2023-05-01T07:15:00;21.00;46.60
7234;DHT22;3658;47.992;10.158;2023-05-01T07:17:29;21.00;46.60
7234;DHT22;3658;47.992;10.158;2023-05-01T07:19:56;21.00;46.60
7234;DHT22;3658;47.992;10.158;2023-05-01T07:22:23;21.00;46.60
7234;DHT22;3658;47.992;10.158;2023-05-01T07:24:50;21.00;46.50
7234;DHT22;3658;47.992;10.158;2023-05-01T07:27:17;21.00;46.60
7234;DHT22;3658;47.992;10.158;2023-05-01T07:29:45;21.00;46.60
7234;DHT22;3658;47.992;10.158;2023-05-01T07:32:11;21.00;46.40
7234;DHT22;3658;47.992;10.158;2023-05-01T07:34:40;21.00;46.30
7234;DHT22;3658;47.992;10.158;2023-05-01T07:37:07;21.00;46.50
7234;DHT22;3658;47.992;10.158;2023-05-01T07:39:34;21.00;46.60
7234;DHT22;3658;47.992;10.158;2023-05-01T07:42:00;21.10;47.10
7234;DHT22;3658;47.992;10.158;2023-05-01T07:44:27;21.10;47.50
7234;DHT22;3658;47.992;10.158;2023-05-01T07:46:54;21.20;47.40
7234;DHT22;3658;47.992;10.158;2023-05-01T07:49:21;21.20;47.50
7234;DHT22;3658;47.992;10.158;2023-05-01T07:51:50;21.20;47.50
7234;DHT22;3658;47.992;10.158;2023-05-01T07:54:17;21.20;47.60
7234;DHT22;3658;47.992;10.158;2023-05-01T07:56:46;21.20;47.60
7234;DHT22;3658;47.992;10.158;2023-05-01T07:59:14;21.20;47.70
7234;DHT22;3658;47.992;10.158;2023-05-01T08:01:41;21.20;47.60
7234;DHT22;3658;47.992;10.158;2023-05-01T08:04:08;21.20;47.70
7234;DHT22;3658;47.992;10.158;2023-05-01T08:06:35;21.10;47.60
7234;DHT22;3658;47.992;10.158;2023-05-01T08:09:03;21.10;47.80
7234;DHT22;3658;47.992;10.158;2023-05-01T08:11:30;21.10;47.90
7234;DHT22;3658;47.992;10.158;2023-05-01T08:13:58;21.10;48.00
7234;DHT22;3658;47.992;10.158;2023-05-01T08:16:25;21.10;48.00
7234;DHT22;3658;47.992;10.158;2023-05-01T08:18:52;21.10;47.90
7234;DHT22;3658;47.992;10.158;2023-05-01T08:21:19;21.10;48.10
7234;DHT22;3658;47.992;10.158;2023-05-01T08:23:47;21.10;48.10
7234;DHT22;3658;47.992;10.158;2023-05-01T08:26:17;21.10;47.90
7234;DHT22;3658;47.992;10.158;2023-05-01T08:28:43;21.10;47.90
7234;DHT22;3658;47.992;10.158;2023-05-01T08:31:10;21.10;47.90
7234;DHT22;3658;47.992;10.158;2023-05-01T08:33:37;21.10;47.80
7234;DHT22;3658;47.992;10.158;2023-05-01T08:36:06;21.10;47.70
7234;DHT22;3658;47.992;10.158;2023-05-01T08:38:34;21.10;47.60
7234;DHT22;3658;47.992;10.158;2023-05-01T08:41:01;21.00;46.80
7234;DHT22;3658;47.992;10.158;2023-05-01T08:43:31;21.00;46.30
7234;DHT22;3658;47.992;10.158;2023-05-01T08:45:58;20.90;45.60
7234;DHT22;3658;47.992;10.158;2023-05-01T08:48:27;20.90;45.50
7234;DHT22;3658;47.992;10.158;2023-05-01T08:50:55;20.90;45.50
7234;DHT22;3658;47.992;10.158;2023-05-01T08:53:24;20.80;45.40
7234;DHT22;3658;47.992;10.158;2023-05-01T08:55:53;20.80;45.30
7234;DHT22;3658;47.992;10.158;2023-05-01T08:58:23;20.80;45.20
7234;DHT22;3658;47.992;10.158;2023-05-01T09:00:52;20.80;45.20
7234;DHT22;3658;47.992;10.158;2023-05-01T09:03:21;20.80;45.10
7234;DHT22;3658;47.992;10.158;2023-05-01T09:05:48;20.70;44.90
7234;DHT22;3658;47.992;10.158;2023-05-01T09:08:17;20.70;44.70
7234;DHT22;3658;47.992;10.158;2023-05-01T09:10:48;20.80;45.30
7234;DHT22;3658;47.992;10.158;2023-05-01T09:13:16;20.80;45.30
7234;DHT22;3658;47.992;10.158;2023-05-01T09:15:44;20.90;45.50
7234;DHT22;3658;47.992;10.158;2023-05-01T09:18:13;20.90;45.70
7234;DHT22;3658;47.992;10.158;2023-05-01T09:20:40;20.90;45.80
7234;DHT22;3658;47.992;10.158;2023-05-01T09:23:08;20.90;45.80
7234;DHT22;3658;47.992;10.158;2023-05-01T09:25:35;21.00;45.80
7234;DHT22;3658;47.992;10.158;2023-05-01T09:28:03;20.90;45.40
7234;DHT22;3658;47.992;10.158;2023-05-01T09:30:33;20.90;45.40
7234;DHT22;3658;47.992;10.158;2023-05-01T09:33:08;20.90;46.30
7234;DHT22;3658;47.992;10.158;2023-05-01T09:35:55;20.90;46.20
7234;DHT22;3658;47.992;10.158;2023-05-01T09:38:25;20.90;46.30
7234;DHT22;3658;47.992;10.158;2023-05-01T09:40:56;20.90;46.40
7234;DHT22;3658;47.992;10.158;2023-05-01T09:43:29;20.90;46.30
7234;DHT22;3658;47.992;10.158;2023-05-01T09:46:00;21.00;46.40
7234;DHT22;3658;47.992;10.158;2023-05-01T09:48:28;21.00;46.30
7234;DHT22;3658;47.992;10.158;2023-05-01T09:50:58;20.90;46.30
7234;DHT22;3658;47.992;10.158;2023-05-01T09:53:36;20.90;46.60
7234;DHT22;3658;47.992;10.158;2023-05-01T09:56:05;20.90;46.40
7234;DHT22;3658;47.992;10.158;2023-05-01T09:58:32;20.90;46.40
7234;DHT22;3658;47.992;10.158;2023-05-01T10:00:59;20.90;46.40
7234;DHT22;3658;47.992;10.158;2023-05-01T10:03:26;20.90;46.40
7234;DHT22;3658;47.992;10.158;2023-05-01T10:05:53;20.90;46.30
7234;DHT22;3658;47.992;10.158;2023-05-01T10:08:28;20.90;46.10
7234;DHT22;3658;47.992;10.158;2023-05-01T10:11:09;20.90;46.00
7234;DHT22;3658;47.992;10.158;2023-05-01T10:13:36;20.90;46.00
7234;DHT22;3658;47.992;10.158;2023-05-01T10:16:03;20.90;45.90
7234;DHT22;3658;47.992;10.158;2023-05-01T10:18:34;20.90;46.00
7234;DHT22;3658;47.992;10.158;2023-05-01T10:21:02;20.90;45.90
7234;DHT22;3658;47.992;10.158;2023-05-01T10:23:31;20.90;45.90
7234;DHT22;3658;47.992;10.158;2023-05-01T10:26:00;20.90;45.90
7234;DHT22;3658;47.992;10.158;2023-05-01T10:28:28;20.80;45.80
7234;DHT22;3658;47.992;10.158;2023-05-01T10:30:56;20.80;45.80
7234;DHT22;3658;47.992;10.158;2023-05-01T10:33:24;20.80;45.80
7234;DHT22;3658;47.992;10.158;2023-05-01T10:35:56;20.80;45.80
7234;DHT22;3658;47.992;10.158;2023-05-01T10:38:29;20.80;45.90
7234;DHT22;3658;47.992;10.158;2023-05-01T10:41:00;20.80;45.90
7234;DHT22;3658;47.992;10.158;2023-05-01T10:43:29;20.70;45.90
7234;DHT22;3658;47.992;10.158;2023-05-01T10:46:26;20.80;46.00
7234;DHT22;3658;47.992;10.158;2023-05-01T10:48:57;20.80;46.00
7234;DHT22;3658;47.992;10.158;2023-05-01T10:51:24;20.70;46.00
7234;DHT22;3658;47.992;10.158;2023-05-01T10:54:25;20.80;46.10
7234;DHT22;3658;47.992;10.158;2023-05-01T10:56:54;20.80;46.10
7234;DHT22;3658;47.992;10.158;2023-05-01T10:59:23;20.70;46.10
7234;DHT22;3658;47.992;10.158;2023-05-01T11:01:57;20.80;46.10
7234;DHT22;3658;47.992;10.158;2023-05-01T11:04:49;20.80;46.10
7234;DHT22;3658;47.992;10.158;2023-05-01T11:07:21;20.80;46.10
7234;DHT22;3658;47.992;10.158;2023-05-01T11:09:50;20.80;46.00
7234;DHT22;3658;47.992;10.158;2023-05-01T11:12:48;20.70;46.00
7234;DHT22;3658;47.992;10.158;2023-05-01T11:15:30;20.70;46.00
7234;DHT22;3658;47.992;10.158;2023-05-01T11:17:58;20.70;46.00
7234;DHT22;3658;47.992;10.158;2023-05-01T11:20:59;20.70;46.50
7234;DHT22;3658;47.992;10.158;2023-05-01T11:23:27;20.80;46.70
7234;DHT22;3658;47.992;10.158;2023-05-01T11:26:01;20.80;46.40
7234;DHT22;3658;47.992;10.158;2023-05-01T11:28:32;20.80;46.30
7234;DHT22;3658;47.992;10.158;2023-05-01T11:30:59;20.90;46.30
7234;DHT22;3658;47.992;10.158;2023-05-01T11:33:27;20.90;46.30
7234;DHT22;3658;47.992;10.158;2023-05-01T11:35:59;20.90;46.30
7234;DHT22;3658;47.992;10.158;2023-05-01T11:38:26;20.90;46.30
7234;DHT22;3658;47.992;10.158;2023-05-01T11:40:55;20.90;46.30
7234;DHT22;3658;47.992;10.158;2023-05-01T11:43:23;20.90;46.30
7234;DHT22;3658;47.992;10.158;2023-05-01T11:45:52;21.00;46.30
7234;DHT22;3658;47.992;10.158;2023-05-01T11:48:27;20.90;46.20
7234;DHT22;3658;47.992;10.158;2023-05-01T11:50:54;20.90;46.20
7234;DHT22;3658;47.992;10.158;2023-05-01T11:53:22;20.90;46.20
7234;DHT22;3658;47.992;10.158;2023-05-01T11:55:49;20.90;46.20
7234;DHT22;3658;47.992;10.158;2023-05-01T11:58:16;20.90;46.20
7234;DHT22;3658;47.992;10.158;2023-05-01T12:00:43;20.90;46.20
7234;DHT22;3658;47.992;10.158;2023-05-01T12:03:13;20.90;46.20
7234;DHT22;3658;47.992;10.158;2023-05-01T12:05:41;20.90;46.20
7234;DHT22;3658;47.992;10.158;2023-05-01T12:08:11;20.80;46.10
7234;DHT22;3658;47.992;10.158;2023-05-01T12:10:40;20.80;46.10
7234;DHT22;3658;47.992;10.158;2023-05-01T12:13:09;20.80;46.10
7234;DHT22;3658;47.992;10.158;2023-05-01T12:15:37;20.80;46.10
7234;DHT22;3658;47.992;10.158;2023-05-01T12:18:05;20.80;46.10
7234;DHT22;3658;47.992;10.158;2023-05-01T12:20:39;20.80;46.00
7234;DHT22;3658;47.992;10.158;2023-05-01T12:23:07;20.80;46.10
7234;DHT22;3658;47.992;10.158;2023-05-01T12:25:35;20.80;46.00
7234;DHT22;3658;47.992;10.158;2023-05-01T12:28:07;20.80;46.00
7234;DHT22;3658;47.992;10.158;2023-05-01T12:30:35;20.80;46.10
7234;DHT22;3658;47.992;10.158;2023-05-01T12:33:08;20.80;46.10
7234;DHT22;3658;47.992;10.158;2023-05-01T12:35:37;20.80;46.60
7234;DHT22;3658;47.992;10.158;2023-05-01T12:38:12;20.80;46.10
7234;DHT22;3658;47.992;10.158;2023-05-01T12:40:48;20.80;46.10
7234;DHT22;3658;47.992;10.158;2023-05-01T12:43:17;20.80;46.10
7234;DHT22;3658;47.992;10.158;2023-05-01T12:45:44;20.80;46.10
7234;DHT22;3658;47.992;10.158;2023-05-01T12:48:13;20.80;46.10
7234;DHT22;3658;47.992;10.158;2023-05-01T12:50:41;20.70;46.00
7234;DHT22;3658;47.992;10.158;2023-05-01T12:53:09;20.70;46.00
7234;DHT22;3658;47.992;10.158;2023-05-01T12:55:46;20.70;46.00
7234;DHT22;3658;47.992;10.158;2023-05-01T12:58:15;20.70;46.00
7234;DHT22;3658;47.992;10.158;2023-05-01T13:00:46;20.70;46.00
7234;DHT22;3658;47.992;10.158;2023-05-01T13:03:14;20.70;46.00
7234;DHT22;3658;47.992;10.158;2023-05-01T13:05:55;20.70;45.90
7234;DHT22;3658;47.992;10.158;2023-05-01T13:08:27;20.70;45.90
7234;DHT22;3658;47.992;10.158;2023-05-01T13:10:55;20.70;46.00
7234;DHT22;3658;47.992;10.158;2023-05-01T13:13:26;20.70;46.00
7234;DHT22;3658;47.992;10.158;2023-05-01T13:16:01;20.70;45.90
7234;DHT22;3658;47.992;10.158;2023-05-01T13:18:30;20.70;46.00
7234;DHT22;3658;47.992;10.158;2023-05-01T13:21:06;20.70;46.00
7234;DHT22;3658;47.992;10.158;2023-05-01T13:23:35;20.60;45.90
7234;DHT22;3658;47.992;10.158;2023-05-01T13:26:03;20.70;46.00
7234;DHT22;3658;47.992;10.158;2023-05-01T13:28:32;20.70;46.00
7234;DHT22;3658;47.992;10.158;2023-05-01T13:30:59;20.60;45.90
7234;DHT22;3658;47.992;10.158;2023-05-01T13:33:27;20.60;45.80
7234;DHT22;3658;47.992;10.158;2023-05-01T13:35:57;20.60;45.90
7234;DHT22;3658;47.992;10.158;2023-05-01T13:38:25;20.60;45.80
7234;DHT22;3658;47.992;10.158;2023-05-01T13:40:52;20.60;45.80
7234;DHT22;3658;47.992;10.158;2023-05-01T13:43:19;20.60;45.80
7234;DHT22;3658;47.992;10.158;2023-05-01T13:45:47;20.60;45.80
7234;DHT22;3658;47.992;10.158;2023-05-01T13:48:16;20.60;45.80
7234;DHT22;3658;47.992;10.158;2023-05-01T13:50:43;20.60;45.80
7234;DHT22;3658;47.992;10.158;2023-05-01T13:53:10;20.60;45.80
7234;DHT22;3658;47.992;10.158;2023-05-01T13:55:40;20.60;45.80
7234;DHT22;3658;47.992;10.158;2023-05-01T13:58:07;20.60;45.80
7234;DHT22;3658;47.992;10.158;2023-05-01T14:00:34;20.60;45.80
7234;DHT22;3658;47.992;10.158;2023-05-01T14:03:01;20.60;45.80
7234;DHT22;3658;47.992;10.158;2023-05-01T14:05:29;20.60;45.80
7234;DHT22;3658;47.992;10.158;2023-05-01T14:07:57;20.60;45.80
7234;DHT22;3658;47.992;10.158;2023-05-01T14:10:26;20.60;45.70
7234;DHT22;3658;47.992;10.158;2023-05-01T14:12:56;20.60;45.80
7234;DHT22;3658;47.992;10.158;2023-05-01T14:15:23;20.60;45.80
7234;DHT22;3658;47.992;10.158;2023-05-01T14:17:50;20.60;45.80
7234;DHT22;3658;47.992;10.158;2023-05-01T14:20:17;20.60;45.80
7234;DHT22;3658;47.992;10.158;2023-05-01T14:22:46;20.60;45.80
7234;DHT22;3658;47.992;10.158;2023-05-01T14:25:24;20.60;45.80
7234;DHT22;3658;47.992;10.158;2023-05-01T14:27:52;20.60;45.80
7234;DHT22;3658;47.992;10.158;2023-05-01T14:30:25;20.60;45.80
7234;DHT22;3658;47.992;10.158;2023-05-01T14:32:53;20.60;45.70
7234;DHT22;3658;47.992;10.158;2023-05-01T14:35:21;20.60;45.70
7234;DHT22;3658;47.992;10.158;2023-05-01T14:37:48;20.60;45.70
7234;DHT22;3658;47.992;10.158;2023-05-01T14:40:17;20.60;45.70
7234;DHT22;3658;47.992;10.158;2023-05-01T14:42:44;20.60;45.70
7234;DHT22;3658;47.992;10.158;2023-05-01T14:45:13;20.60;45.70
7234;DHT22;3658;47.992;10.158;2023-05-01T14:47:46;20.60;45.70
7234;DHT22;3658;47.992;10.158;2023-05-01T14:50:19;20.60;45.70
7234;DHT22;3658;47.992;10.158;2023-05-01T14:52:46;20.60;45.70
7234;DHT22;3658;47.992;10.158;2023-05-01T14:55:16;20.60;45.70
7234;DHT22;3658;47.992;10.158;2023-05-01T14:57:44;20.50;45.60
7234;DHT22;3658;47.992;10.158;2023-05-01T15:00:13;20.60;45.70
7234;DHT22;3658;47.992;10.158;2023-05-01T15:02:40;20.50;45.50
7234;DHT22;3658;47.992;10.158;2023-05-01T15:05:09;20.50;45.50
7234;DHT22;3658;47.992;10.158;2023-05-01T15:07:36;20.50;45.50
7234;DHT22;3658;47.992;10.158;2023-05-01T15:10:03;20.50;45.50
7234;DHT22;3658;47.992;10.158;2023-05-01T15:12:30;20.50;45.50
7234;DHT22;3658;47.992;10.158;2023-05-01T15:14:57;20.50;45.50
7234;DHT22;3658;47.992;10.158;2023-05-01T15:17:24;20.50;45.50
7234;DHT22;3658;47.992;10.158;2023-05-01T15:19:52;20.50;45.50
7234;DHT22;3658;47.992;10.158;2023-05-01T15:22:20;20.50;45.50
7234;DHT22;3658;47.992;10.158;2023-05-01T15:24:47;20.50;45.50
7234;DHT22;3658;47.992;10.158;2023-05-01T15:27:14;20.50;45.50
7234;DHT22;3658;47.992;10.158;2023-05-01T15:29:42;20.50;46.40
7234;DHT22;3658;47.992;10.158;2023-05-01T15:32:09;20.50;46.20
7234;DHT22;3658;47.992;10.158;2023-05-01T15:34:36;20.50;46.00
7234;DHT22;3658;47.992;10.158;2023-05-01T15:37:05;20.50;45.90
7234;DHT22;3658;47.992;10.158;2023-05-01T15:39:34;20.50;45.90
7234;DHT22;3658;47.992;10.158;2023-05-01T15:42:02;20.50;45.90
7234;DHT22;3658;47.992;10.158;2023-05-01T15:44:30;20.50;45.90
7234;DHT22;3658;47.992;10.158;2023-05-01T15:46:57;20.50;45.80
7234;DHT22;3658;47.992;10.158;2023-05-01T15:49:24;20.50;45.70
7234;DHT22;3658;47.992;10.158;2023-05-01T15:51:52;20.50;45.80
7234;DHT22;3658;47.992;10.158;2023-05-01T15:54:18;20.50;45.90
7234;DHT22;3658;47.992;10.158;2023-05-01T15:56:47;20.50;46.10
7234;DHT22;3658;47.992;10.158;2023-05-01T15:59:14;20.50;46.20